Time,TemperatureF,DewpointF,PressureIn,WindDirection,WindDirectionDegrees,WindSpeedMPH,WindSpeedGustMPH,Humidity,HourlyPrecipIn,Conditions,Clouds,dailyrainin,SoftwareType,DateUTC
2013-09-28 00:00:00,59.4,58.5,30.08,NW,319,0.0,0.0,97,0.00,,---,0.00,VWS V14.01,2013-09-28 04:00:00,
2013-09-28 00:01:00,58.1,57.5,30.09,NW,319,0.0,0.0,98,0.00,,---,0.00,VWS V14.01,2013-09-28 04:01:00,
2013-09-28 00:02:00,58.2,57.9,30.09,NW,319,0.0,0.0,99,0.00,,---,0.00,VWS V14.01,2013-09-28 04:02:00,
2013-09-28 00:05:00,59.2,58.3,30.08,NW,319,0.0,0.0,97,0.00,,---,0.00,VWS V14.01,2013-09-28 04:05:00,
2013-09-28 00:07:00,58.1,57.8,30.09,NW,319,0.0,0.0,99,0.00,,---,0.00,VWS V14.01,2013-09-28 04:07:00,
2013-09-28 00:10:00,59.1,58.5,30.08,NW,319,0.0,0.0,98,0.00,,---,0.00,VWS V14.01,2013-09-28 04:10:00,
2013-09-28 00:12:00,58.1,57.8,30.09,NW,319,0.0,0.0,99,0.00,,---,0.00,VWS V14.01,2013-09-28 04:12:00,
2013-09-28 00:15:00,59.0,58.4,30.08,NW,319,0.0,0.0,98,0.00,,---,0.00,VWS V14.01,2013-09-28 04:15:00,
2013-09-28 00:17:00,58.2,57.9,30.09,NW,319,0.0,0.0,99,0.00,,---,0.00,VWS V14.01,2013-09-28 04:17:00,
2013-09-28 00:20:00,58.9,58.3,30.08,NW,319,0.0,0.0,98,0.00,,---,0.00,VWS V14.01,2013-09-28 04:20:00,
2013-09-28 00:22:00,58.2,57.9,30.09,NW,319,0.0,0.0,99,0.00,,---,0.00,VWS V14.01,2013-09-28 04:22:00,
2013-09-28 00:25:00,58.8,58.2,30.08,NW,319,0.0,0.0,98,0.00,,---,0.00,VWS V14.01,2013-09-28 04:25:00,
2013-09-28 00:27:00,58.2,57.9,30.09,NW,319,0.0,0.0,99,0.00,,---,0.00,VWS V14.01,2013-09-28 04:27:00,
2013-09-28 00:30:00,58.7,58.1,30.08,NW,319,0.0,0.0,98,0.00,,---,0.00,VWS V14.01,2013-09-28 04:30:00,
2013-09-28 00:32:00,58.4,58.1,30.09,NW,319,0.0,0.0,99,0.00,,---,0.00,VWS V14.01,2013-09-28 04:32:00,
2013-09-28 00:35:00,58.6,58.0,30.08,NW,319,0.0,0.0,98,0.00,,---,0.00,VWS V14.01,2013-09-28 04:35:00,
2013-09-28 00:37:00,58.6,58.3,30.09,WNW,286,0.0,1.0,99,0.00,,---,0.00,VWS V14.01,2013-09-28 04:37:00,
2013-09-28 00:40:00,58.4,57.8,30.08,NW,319,0.0,0.0,98,0.00,,---,0.00,VWS V14.01,2013-09-28 04:40:00,
2013-09-28 00:42:00,58.5,58.2,30.09,SE,140,1.0,1.0,99,0.00,,---,0.00,VWS V14.01,2013-09-28 04:42:00,
2013-09-28 00:45:00,58.2,57.6,30.08,NW,319,0.0,0.0,98,0.00,,---,0.00,VWS V14.01,2013-09-28 04:45:00,
2013-09-28 00:47:00,58.3,58.0,30.09,SE,140,0.0,0.0,99,0.00,,---,0.00,VWS V14.01,2013-09-28 04:47:00,
2013-09-28 00:50:00,58.3,57.7,30.08,NW,319,0.0,0.0,98,0.00,,---,0.00,VWS V14.01,2013-09-28 04:50:00,
2013-09-28 00:52:00,58.2,57.9,30.09,SE,140,0.0,0.0,99,0.00,,---,0.00,VWS V14.01,2013-09-28 04:52:00,
2013-09-28 00:55:00,58.2,57.6,30.08,NW,319,0.0,0.0,98,0.00,,---,0.00,VWS V14.01,2013-09-28 04:55:00,
2013-09-28 00:57:00,58.1,57.8,30.09,SE,140,0.0,0.0,99,0.00,,---,0.00,VWS V14.01,2013-09-28 04:57:00,
2013-09-28 01:00:00,58.1,57.5,30.09,NW,319,0.0,0.0,98,0.00,,---,0.00,VWS V14.01,2013-09-28 05:00:00,
2013-09-28 01:02:00,58.2,57.9,30.09,SE,140,0.0,0.0,99,0.00,,---,0.00,VWS V14.01,2013-09-28 05:02:00,
2013-09-28 01:05:00,58.2,57.9,30.09,NW,319,0.0,0.0,99,0.00,,---,0.00,VWS V14.01,2013-09-28 05:05:00,
2013-09-28 01:07:00,58.0,57.7,30.09,SE,140,0.0,0.0,99,0.00,,---,0.00,VWS V14.01,2013-09-28 05:07:00,
2013-09-28 01:10:00,58.0,57.7,30.09,NW,319,0.0,0.0,99,0.00,,---,0.00,VWS V14.01,2013-09-28 05:10:00,
2013-09-28 01:12:00,57.8,57.5,30.09,SE,140,0.0,0.0,99,0.00,,---,0.00,VWS V14.01,2013-09-28 05:12:00,
2013-09-28 01:15:00,58.2,57.9,30.09,NW,319,0.0,0.0,99,0.00,,---,0.00,VWS V14.01,2013-09-28 05:15:00,
2013-09-28 01:17:00,57.7,57.4,30.09,SE,141,0.0,0.0,99,0.00,,---,0.00,VWS V14.01,2013-09-28 05:17:00,
2013-09-28 01:20:00,58.2,57.9,30.09,NW,319,0.0,0.0,99,0.00,,---,0.00,VWS V14.01,2013-09-28 05:20:00,
2013-09-28 01:22:00,57.5,57.2,30.09,SE,140,0.0,0.0,99,0.00,,---,0.00,VWS V14.01,2013-09-28 05:22:00,
2013-09-28 01:25:00,58.1,57.8,30.09,NW,319,0.0,0.0,99,0.00,,---,0.00,VWS V14.01,2013-09-28 05:25:00,
2013-09-28 01:27:00,57.4,57.1,30.09,SE,140,0.0,0.0,99,0.00,,---,0.00,VWS V14.01,2013-09-28 05:27:00,
2013-09-28 01:30:00,58.3,58.0,30.09,NW,319,0.0,0.0,99,0.00,,---,0.00,VWS V14.01,2013-09-28 05:30:00,
2013-09-28 01:32:00,57.5,57.2,30.09,SE,141,0.0,0.0,99,0.00,,---,0.00,VWS V14.01,2013-09-28 05:32:00,
2013-09-28 01:35:00,58.4,58.1,30.09,WSW,256,1.0,1.0,99,0.00,,---,0.00,VWS V14.01,2013-09-28 05:35:00,
2013-09-28 01:37:00,57.4,57.1,30.09,SE,140,0.0,0.0,99,0.00,,---,0.00,VWS V14.01,2013-09-28 05:37:00,
2013-09-28 01:40:00,58.6,58.3,30.09,SW,231,0.0,1.0,99,0.00,,---,0.00,VWS V14.01,2013-09-28 05:40:00,
2013-09-28 01:42:00,57.4,57.1,30.09,SE,140,0.0,0.0,99,0.00,,---,0.00,VWS V14.01,2013-09-28 05:42:00,
2013-09-28 01:45:00,58.4,58.1,30.09,SE,140,0.0,1.0,99,0.00,,---,0.00,VWS V14.01,2013-09-28 05:45:00,
2013-09-28 01:47:00,57.4,57.1,30.09,SE,141,0.0,0.0,99,0.00,,---,0.00,VWS V14.01,2013-09-28 05:47:00,
2013-09-28 01:50:00,58.2,57.9,30.09,SE,141,0.0,0.0,99,0.00,,---,0.00,VWS V14.01,2013-09-28 05:50:00,
2013-09-28 01:52:00,57.5,57.2,30.09,SE,140,0.0,1.0,99,0.00,,---,0.00,VWS V14.01,2013-09-28 05:52:00,
2013-09-28 01:55:00,58.2,57.9,30.09,SE,140,0.0,0.0,99,0.00,,---,0.00,VWS V14.01,2013-09-28 05:55:00,
2013-09-28 01:57:00,57.4,57.1,30.09,SE,141,0.0,1.0,99,0.00,,---,0.00,VWS V14.01,2013-09-28 05:57:00,
2013-09-28 02:00:00,58.2,57.9,30.09,SE,140,0.0,0.0,99,0.00,,---,0.00,VWS V14.01,2013-09-28 06:00:00,
2013-09-28 02:02:00,57.4,57.1,30.09,West,262,0.0,1.0,99,0.00,,---,0.00,VWS V14.01,2013-09-28 06:02:00,
2013-09-28 02:05:00,58.2,57.9,30.09,NW,319,0.0,0.0,99,0.00,,---,0.00,VWS V14.01,2013-09-28 06:05:00,
2013-09-28 02:07:00,57.4,57.1,30.09,West,262,0.0,1.0,99,0.00,,---,0.00,VWS V14.01,2013-09-28 06:07:00,
2013-09-28 02:10:00,57.9,57.6,30.09,SE,140,0.0,0.0,99,0.00,,---,0.00,VWS V14.01,2013-09-28 06:10:00,
2013-09-28 02:12:00,57.6,57.3,30.09,West,272,0.0,1.0,99,0.00,,---,0.00,VWS V14.01,2013-09-28 06:12:00,
2013-09-28 02:15:00,57.8,57.5,30.09,SE,141,0.0,0.0,99,0.00,,---,0.00,VWS V14.01,2013-09-28 06:15:00,
2013-09-28 02:17:00,57.6,57.3,30.09,West,272,0.0,0.0,99,0.00,,---,0.00,VWS V14.01,2013-09-28 06:17:00,
2013-09-28 02:20:00,57.7,57.4,30.09,SE,140,0.0,0.0,99,0.00,,---,0.00,VWS V14.01,2013-09-28 06:20:00,
2013-09-28 02:22:00,57.5,57.2,30.09,West,272,0.0,0.0,99,0.00,,---,0.00,VWS V14.01,2013-09-28 06:22:00,
2013-09-28 02:25:00,57.5,57.2,30.09,SE,140,0.0,0.0,99,0.00,,---,0.00,VWS V14.01,2013-09-28 06:25:00,
2013-09-28 02:27:00,57.6,57.3,30.09,West,272,0.0,0.0,99,0.00,,---,0.00,VWS V14.01,2013-09-28 06:27:00,
2013-09-28 02:30:00,57.4,57.1,30.09,SE,140,0.0,0.0,99,0.00,,---,0.00,VWS V14.01,2013-09-28 06:30:00,
2013-09-28 02:32:00,57.8,57.5,30.09,West,272,0.0,1.0,99,0.00,,---,0.00,VWS V14.01,2013-09-28 06:32:00,
2013-09-28 02:35:00,57.5,57.2,30.09,SE,140,0.0,0.0,99,0.00,,---,0.00,VWS V14.01,2013-09-28 06:35:00,
2013-09-28 02:37:00,57.7,57.4,30.09,West,272,0.0,0.0,99,0.00,,---,0.00,VWS V14.01,2013-09-28 06:37:00,
2013-09-28 02:40:00,57.4,57.1,30.09,SE,140,0.0,0.0,99,0.00,,---,0.00,VWS V14.01,2013-09-28 06:40:00,
2013-09-28 02:42:00,57.6,57.3,30.09,West,272,0.0,0.0,99,0.00,,---,0.00,VWS V14.01,2013-09-28 06:42:00,
2013-09-28 02:45:00,57.4,57.1,30.09,SE,140,0.0,0.0,99,0.00,,---,0.00,VWS V14.01,2013-09-28 06:45:00,
2013-09-28 02:47:00,57.6,57.3,30.09,West,272,0.0,0.0,99,0.00,,---,0.00,VWS V14.01,2013-09-28 06:47:00,
2013-09-28 02:50:00,57.5,57.2,30.09,SE,140,0.0,0.0,99,0.00,,---,0.00,VWS V14.01,2013-09-28 06:50:00,
2013-09-28 02:52:00,57.5,57.2,30.09,West,272,0.0,0.0,99,0.00,,---,0.00,VWS V14.01,2013-09-28 06:52:00,
2013-09-28 02:55:00,57.4,57.1,30.09,SE,141,0.0,1.0,99,0.00,,---,0.00,VWS V14.01,2013-09-28 06:55:00,
2013-09-28 02:57:00,57.4,57.1,30.09,West,272,0.0,0.0,99,0.00,,---,0.00,VWS V14.01,2013-09-28 06:57:00,
2013-09-28 03:00:00,57.5,57.2,30.09,West,262,0.0,1.0,99,0.00,,---,0.00,VWS V14.01,2013-09-28 07:00:00,
2013-09-28 03:02:00,57.4,57.1,30.09,West,272,0.0,0.0,99,0.00,,---,0.00,VWS V14.01,2013-09-28 07:02:00,
2013-09-28 03:05:00,57.4,57.1,30.09,West,262,0.0,1.0,99,0.00,,---,0.00,VWS V14.01,2013-09-28 07:05:00,
2013-09-28 03:07:00,57.4,57.1,30.09,West,272,0.0,0.0,99,0.00,,---,0.00,VWS V14.01,2013-09-28 07:07:00,
2013-09-28 03:10:00,57.4,57.1,30.09,SE,136,0.0,1.0,99,0.00,,---,0.00,VWS V14.01,2013-09-28 07:10:00,
2013-09-28 03:12:00,57.3,57.0,30.09,West,272,0.0,0.0,99,0.00,,---,0.00,VWS V14.01,2013-09-28 07:12:00,
2013-09-28 03:15:00,57.6,57.3,30.09,West,272,0.0,1.0,99,0.00,,---,0.00,VWS V14.01,2013-09-28 07:15:00,
2013-09-28 03:17:00,57.4,57.1,30.09,West,272,0.0,0.0,99,0.00,,---,0.00,VWS V14.01,2013-09-28 07:17:00,
2013-09-28 03:20:00,57.5,57.2,30.09,West,272,0.0,0.0,99,0.00,,---,0.00,VWS V14.01,2013-09-28 07:20:00,
2013-09-28 03:22:00,57.4,57.1,30.10,West,272,0.0,0.0,99,0.00,,---,0.00,VWS V14.01,2013-09-28 07:22:00,
2013-09-28 03:25:00,57.5,57.2,30.09,SE,140,0.0,0.0,99,0.00,,---,0.00,VWS V14.01,2013-09-28 07:25:00,
2013-09-28 03:27:00,57.4,57.1,30.09,West,272,0.0,0.0,99,0.00,,---,0.00,VWS V14.01,2013-09-28 07:27:00,
2013-09-28 03:30:00,57.6,57.3,30.09,West,272,0.0,0.0,99,0.00,,---,0.00,VWS V14.01,2013-09-28 07:30:00,
2013-09-28 03:32:00,57.4,57.1,30.09,West,272,0.0,0.0,99,0.00,,---,0.00,VWS V14.01,2013-09-28 07:32:00,
2013-09-28 03:35:00,57.8,57.5,30.09,West,272,0.0,1.0,99,0.00,,---,0.00,VWS V14.01,2013-09-28 07:35:00,
2013-09-28 03:37:00,57.5,57.2,30.09,West,272,0.0,0.0,99,0.00,,---,0.00,VWS V14.01,2013-09-28 07:37:00,
2013-09-28 03:40:00,57.7,57.4,30.09,West,272,0.0,0.0,99,0.00,,---,0.00,VWS V14.01,2013-09-28 07:40:00,
2013-09-28 03:42:00,57.6,57.3,30.10,West,272,0.0,0.0,99,0.00,,---,0.00,VWS V14.01,2013-09-28 07:42:00,
2013-09-28 03:45:00,57.6,57.3,30.09,West,272,0.0,0.0,99,0.00,,---,0.00,VWS V14.01,2013-09-28 07:45:00,
2013-09-28 03:47:00,57.9,57.6,30.10,West,272,0.0,0.0,99,0.00,,---,0.00,VWS V14.01,2013-09-28 07:47:00,
2013-09-28 03:50:00,57.6,57.3,30.09,West,272,0.0,0.0,99,0.00,,---,0.00,VWS V14.01,2013-09-28 07:50:00,
2013-09-28 03:52:00,58.0,57.7,30.10,West,272,0.0,0.0,99,0.00,,---,0.00,VWS V14.01,2013-09-28 07:52:00,
2013-09-28 03:55:00,57.5,57.2,30.09,West,272,0.0,0.0,99,0.00,,---,0.00,VWS V14.01,2013-09-28 07:55:00,
2013-09-28 03:57:00,57.9,57.6,30.10,West,272,0.0,0.0,99,0.00,,---,0.00,VWS V14.01,2013-09-28 07:57:00,
2013-09-28 04:00:00,57.5,57.2,30.09,West,272,0.0,0.0,99,0.00,,---,0.00,VWS V14.01,2013-09-28 08:00:00,
2013-09-28 04:02:00,57.8,57.5,30.10,West,272,0.0,0.0,99,0.00,,---,0.00,VWS V14.01,2013-09-28 08:02:00,
2013-09-28 04:05:00,57.4,57.1,30.09,West,272,0.0,0.0,99,0.00,,---,0.00,VWS V14.01,2013-09-28 08:05:00,
2013-09-28 04:08:00,57.8,57.5,30.10,West,272,0.0,0.0,99,0.00,,---,0.00,VWS V14.01,2013-09-28 08:08:00,
2013-09-28 04:10:00,57.2,56.9,30.09,West,272,0.0,0.0,99,0.00,,---,0.00,VWS V14.01,2013-09-28 08:10:00,
2013-09-28 04:13:00,57.8,57.5,30.10,West,272,0.0,0.0,99,0.00,,---,0.00,VWS V14.01,2013-09-28 08:13:00,
2013-09-28 04:15:00,57.4,57.1,30.10,West,272,0.0,0.0,99,0.00,,---,0.00,VWS V14.01,2013-09-28 08:15:00,
2013-09-28 04:18:00,57.6,57.3,30.10,West,272,0.0,0.0,99,0.00,,---,0.00,VWS V14.01,2013-09-28 08:18:00,
2013-09-28 04:20:00,57.4,57.1,30.09,West,272,0.0,0.0,99,0.00,,---,0.00,VWS V14.01,2013-09-28 08:20:00,
2013-09-28 04:23:00,57.4,57.1,30.10,West,272,0.0,0.0,99,0.00,,---,0.00,VWS V14.01,2013-09-28 08:23:00,
2013-09-28 04:25:00,57.4,57.1,30.09,West,272,0.0,0.0,99,0.00,,---,0.00,VWS V14.01,2013-09-28 08:25:00,
2013-09-28 04:28:00,57.3,57.0,30.10,West,272,0.0,0.0,99,0.00,,---,0.00,VWS V14.01,2013-09-28 08:28:00,
2013-09-28 04:30:00,57.3,57.0,30.09,West,272,0.0,0.0,99,0.00,,---,0.00,VWS V14.01,2013-09-28 08:30:00,
2013-09-28 04:33:00,57.2,56.9,30.10,West,272,0.0,0.0,99,0.00,,---,0.00,VWS V14.01,2013-09-28 08:33:00,
2013-09-28 04:35:00,57.5,57.2,30.09,West,272,0.0,0.0,99,0.00,,---,0.00,VWS V14.01,2013-09-28 08:35:00,
2013-09-28 04:38:00,57.2,56.9,30.10,West,272,0.0,0.0,99,0.00,,---,0.00,VWS V14.01,2013-09-28 08:38:00,
2013-09-28 04:40:00,57.6,57.3,30.09,West,272,0.0,0.0,99,0.00,,---,0.00,VWS V14.01,2013-09-28 08:40:00,
2013-09-28 04:43:00,57.1,56.8,30.10,West,272,0.0,0.0,99,0.00,,---,0.00,VWS V14.01,2013-09-28 08:43:00,
2013-09-28 04:45:00,57.7,57.4,30.10,West,272,0.0,0.0,99,0.00,,---,0.00,VWS V14.01,2013-09-28 08:45:00,
2013-09-28 04:48:00,57.3,57.0,30.11,West,272,0.0,1.0,99,0.00,,---,0.00,VWS V14.01,2013-09-28 08:48:00,
2013-09-28 04:50:00,58.0,57.7,30.10,West,272,0.0,0.0,99,0.00,,---,0.00,VWS V14.01,2013-09-28 08:50:00,
2013-09-28 04:53:00,57.3,57.0,30.10,West,272,0.0,0.0,99,0.00,,---,0.00,VWS V14.01,2013-09-28 08:53:00,
2013-09-28 04:55:00,58.0,57.7,30.10,West,272,0.0,0.0,99,0.00,,---,0.00,VWS V14.01,2013-09-28 08:55:00,
2013-09-28 04:58:00,57.1,56.8,30.11,West,272,0.0,0.0,99,0.00,,---,0.00,VWS V14.01,2013-09-28 08:58:00,
2013-09-28 05:00:00,57.8,57.5,30.10,West,272,0.0,0.0,99,0.00,,---,0.00,VWS V14.01,2013-09-28 09:00:00,
2013-09-28 05:03:00,57.0,56.7,30.11,West,272,0.0,0.0,99,0.00,,---,0.00,VWS V14.01,2013-09-28 09:03:00,
2013-09-28 05:05:00,57.8,57.5,30.10,West,272,0.0,0.0,99,0.00,,---,0.00,VWS V14.01,2013-09-28 09:05:00,
2013-09-28 05:08:00,56.9,56.6,30.11,West,272,0.0,0.0,99,0.00,,---,0.00,VWS V14.01,2013-09-28 09:08:00,
2013-09-28 05:10:00,57.7,57.4,30.10,West,272,0.0,1.0,99,0.00,,---,0.00,VWS V14.01,2013-09-28 09:10:00,
2013-09-28 05:13:00,57.1,56.8,30.11,West,272,0.0,1.0,99,0.00,,---,0.00,VWS V14.01,2013-09-28 09:13:00,
2013-09-28 05:15:00,57.7,57.4,30.10,West,272,0.0,0.0,99,0.00,,---,0.00,VWS V14.01,2013-09-28 09:15:00,
2013-09-28 05:18:00,57.0,56.7,30.11,West,272,0.0,0.0,99,0.00,,---,0.00,VWS V14.01,2013-09-28 09:18:00,
2013-09-28 05:20:00,57.5,57.2,30.10,West,272,0.0,0.0,99,0.00,,---,0.00,VWS V14.01,2013-09-28 09:20:00,
2013-09-28 05:23:00,56.9,56.6,30.11,West,271,0.0,0.0,99,0.00,,---,0.00,VWS V14.01,2013-09-28 09:23:00,
2013-09-28 05:25:00,57.4,57.1,30.10,West,272,0.0,0.0,99,0.00,,---,0.00,VWS V14.01,2013-09-28 09:25:00,
2013-09-28 05:28:00,56.9,56.6,30.11,West,271,0.0,0.0,99,0.00,,---,0.00,VWS V14.01,2013-09-28 09:28:00,
2013-09-28 05:30:00,57.3,57.0,30.10,West,272,0.0,0.0,99,0.00,,---,0.00,VWS V14.01,2013-09-28 09:30:00,
2013-09-28 05:33:00,57.2,56.9,30.11,West,274,0.0,1.0,99,0.00,,---,0.00,VWS V14.01,2013-09-28 09:33:00,
2013-09-28 05:35:00,57.2,56.9,30.11,West,272,0.0,0.0,99,0.00,,---,0.00,VWS V14.01,2013-09-28 09:35:00,
2013-09-28 05:38:00,57.4,57.1,30.11,West,274,0.0,0.0,99,0.00,,---,0.00,VWS V14.01,2013-09-28 09:38:00,
2013-09-28 05:40:00,57.2,56.9,30.10,West,272,0.0,0.0,99,0.00,,---,0.00,VWS V14.01,2013-09-28 09:40:00,
2013-09-28 05:43:00,57.4,57.1,30.12,West,274,0.0,0.0,99,0.00,,---,0.00,VWS V14.01,2013-09-28 09:43:00,
2013-09-28 05:45:00,57.2,56.9,30.10,West,272,0.0,1.0,99,0.00,,---,0.00,VWS V14.01,2013-09-28 09:45:00,
2013-09-28 05:48:00,57.2,56.9,30.12,West,274,0.0,0.0,99,0.00,,---,0.00,VWS V14.01,2013-09-28 09:48:00,
2013-09-28 05:50:00,57.2,56.9,30.10,West,272,0.0,1.0,99,0.00,,---,0.00,VWS V14.01,2013-09-28 09:50:00,
2013-09-28 05:53:00,57.3,57.0,30.12,West,274,0.0,0.0,99,0.00,,---,0.00,VWS V14.01,2013-09-28 09:53:00,
2013-09-28 05:55:00,57.2,56.9,30.10,West,272,0.0,0.0,99,0.00,,---,0.00,VWS V14.01,2013-09-28 09:55:00,
2013-09-28 05:58:00,57.2,56.9,30.12,West,274,0.0,0.0,99,0.00,,---,0.00,VWS V14.01,2013-09-28 09:58:00,
2013-09-28 06:00:00,57.0,56.7,30.11,West,272,0.0,0.0,99,0.00,,---,0.00,VWS V14.01,2013-09-28 10:00:00,
2013-09-28 06:03:00,57.2,56.9,30.12,West,259,0.0,1.0,99,0.00,,---,0.00,VWS V14.01,2013-09-28 10:03:00,
2013-09-28 06:05:00,57.0,56.7,30.11,West,272,0.0,0.0,99,0.00,,---,0.00,VWS V14.01,2013-09-28 10:05:00,
2013-09-28 06:08:00,57.3,57.0,30.12,SW,231,0.0,1.0,99,0.00,,---,0.00,VWS V14.01,2013-09-28 10:08:00,
2013-09-28 06:10:00,57.0,56.7,30.11,West,272,0.0,0.0,99,0.00,,---,0.00,VWS V14.01,2013-09-28 10:10:00,
2013-09-28 06:13:00,57.5,57.2,30.12,SW,231,0.0,1.0,99,0.00,,---,0.00,VWS V14.01,2013-09-28 10:13:00,
2013-09-28 06:15:00,57.0,56.7,30.11,West,272,0.0,1.0,99,0.00,,---,0.00,VWS V14.01,2013-09-28 10:15:00,
2013-09-28 06:18:00,57.7,57.1,30.12,SW,231,0.0,0.0,98,0.00,,---,0.00,VWS V14.01,2013-09-28 10:18:00,
2013-09-28 06:20:00,56.9,56.6,30.11,West,272,0.0,0.0,99,0.00,,---,0.00,VWS V14.01,2013-09-28 10:20:00,
2013-09-28 06:23:00,57.9,57.3,30.12,WSW,243,0.0,3.0,98,0.00,,---,0.00,VWS V14.01,2013-09-28 10:23:00,
2013-09-28 06:25:00,56.9,56.6,30.11,West,271,0.0,0.0,99,0.00,,---,0.00,VWS V14.01,2013-09-28 10:25:00,
2013-09-28 06:28:00,57.9,57.1,30.13,WSW,243,0.0,1.0,97,0.00,,---,0.00,VWS V14.01,2013-09-28 10:28:00,
2013-09-28 06:30:00,57.1,56.8,30.11,West,274,1.0,2.0,99,0.00,,---,0.00,VWS V14.01,2013-09-28 10:30:00,
2013-09-28 06:33:00,57.5,56.7,30.13,WSW,243,0.0,0.0,97,0.00,,---,0.00,VWS V14.01,2013-09-28 10:33:00,
2013-09-28 06:35:00,57.2,56.9,30.11,West,274,0.0,1.0,99,0.00,,---,0.00,VWS V14.01,2013-09-28 10:35:00,
2013-09-28 06:38:00,57.2,56.6,30.13,WSW,243,0.0,0.0,98,0.00,,---,0.00,VWS V14.01,2013-09-28 10:38:00,
2013-09-28 06:40:00,57.4,57.1,30.12,West,274,0.0,0.0,99,0.00,,---,0.00,VWS V14.01,2013-09-28 10:40:00,
2013-09-28 06:43:00,57.2,56.6,30.13,WSW,243,0.0,0.0,98,0.00,,---,0.00,VWS V14.01,2013-09-28 10:43:00,
2013-09-28 06:45:00,57.4,57.1,30.12,West,274,0.0,0.0,99,0.00,,---,0.00,VWS V14.01,2013-09-28 10:45:00,
2013-09-28 06:48:00,57.2,56.6,30.13,WSW,243,0.0,1.0,98,0.00,,---,0.00,VWS V14.01,2013-09-28 10:48:00,
2013-09-28 06:50:00,57.2,56.9,30.12,West,274,0.0,0.0,99,0.00,,---,0.00,VWS V14.01,2013-09-28 10:50:00,
2013-09-28 06:53:00,57.2,56.9,30.13,WSW,243,0.0,1.0,99,0.00,,---,0.00,VWS V14.01,2013-09-28 10:53:00,
2013-09-28 06:55:00,57.3,57.0,30.12,West,274,0.0,0.0,99,0.00,,---,0.00,VWS V14.01,2013-09-28 10:55:00,
2013-09-28 06:58:00,57.5,56.9,30.14,WSW,241,0.0,1.0,98,0.00,,---,0.00,VWS V14.01,2013-09-28 10:58:00,
2013-09-28 07:00:00,57.2,56.9,30.12,West,274,0.0,0.0,99,0.00,,---,0.00,VWS V14.01,2013-09-28 11:00:00,
2013-09-28 07:03:00,57.8,57.2,30.14,WSW,240,0.0,1.0,98,0.00,,---,0.00,VWS V14.01,2013-09-28 11:03:00,
2013-09-28 07:05:00,57.2,56.9,30.12,West,259,0.0,1.0,99,0.00,,---,0.00,VWS V14.01,2013-09-28 11:05:00,
2013-09-28 07:08:00,57.7,56.9,30.14,SW,223,0.0,1.0,97,0.00,,---,0.00,VWS V14.01,2013-09-28 11:08:00,
2013-09-28 07:10:00,57.4,57.1,30.12,SW,231,0.0,1.0,99,0.00,,---,0.00,VWS V14.01,2013-09-28 11:10:00,
2013-09-28 07:13:00,57.5,56.7,30.14,SW,223,0.0,0.0,97,0.00,,---,0.00,VWS V14.01,2013-09-28 11:13:00,
2013-09-28 07:15:00,57.6,57.3,30.12,SW,231,0.0,1.0,99,0.00,,---,0.00,VWS V14.01,2013-09-28 11:15:00,
2013-09-28 07:18:00,57.6,56.8,30.14,SW,224,0.0,1.0,97,0.00,,---,0.00,VWS V14.01,2013-09-28 11:18:00,
2013-09-28 07:20:00,57.7,57.1,30.12,WSW,245,0.0,0.0,98,0.00,,---,0.00,VWS V14.01,2013-09-28 11:20:00,
2013-09-28 07:23:00,58.0,57.2,30.15,WSW,254,0.0,2.0,97,0.00,,---,0.00,VWS V14.01,2013-09-28 11:23:00,
2013-09-28 07:25:00,58.0,57.4,30.12,WSW,243,0.0,3.0,98,0.00,,---,0.00,VWS V14.01,2013-09-28 11:25:00,
2013-09-28 07:28:00,57.8,56.7,30.14,WSW,254,0.0,1.0,96,0.00,,---,0.00,VWS V14.01,2013-09-28 11:28:00,
2013-09-28 07:30:00,57.8,57.0,30.12,WSW,243,0.0,1.0,97,0.00,,---,0.00,VWS V14.01,2013-09-28 11:30:00,
2013-09-28 07:33:00,57.3,56.2,30.14,WSW,254,0.0,0.0,96,0.00,,---,0.00,VWS V14.01,2013-09-28 11:33:00,
2013-09-28 07:35:00,57.4,56.6,30.13,WSW,243,0.0,0.0,97,0.00,,---,0.00,VWS V14.01,2013-09-28 11:35:00,
2013-09-28 07:38:00,56.9,56.1,30.15,WSW,254,0.0,0.0,97,0.00,,---,0.00,VWS V14.01,2013-09-28 11:38:00,
2013-09-28 07:40:00,57.2,56.6,30.13,WSW,243,0.0,0.0,98,0.00,,---,0.00,VWS V14.01,2013-09-28 11:40:00,
2013-09-28 07:43:00,56.5,55.7,30.15,WSW,254,0.0,0.0,97,0.00,,---,0.00,VWS V14.01,2013-09-28 11:43:00,
2013-09-28 07:45:00,57.2,56.6,30.13,WSW,243,0.0,0.0,98,0.00,,---,0.00,VWS V14.01,2013-09-28 11:45:00,
2013-09-28 07:48:00,56.2,55.4,30.15,WSW,254,0.0,0.0,97,0.00,,---,0.00,VWS V14.01,2013-09-28 11:48:00,
2013-09-28 07:50:00,57.2,56.6,30.13,WSW,243,0.0,1.0,98,0.00,,---,0.00,VWS V14.01,2013-09-28 11:50:00,
2013-09-28 07:53:00,56.0,55.5,30.15,WSW,254,0.0,0.0,98,0.00,,---,0.00,VWS V14.01,2013-09-28 11:53:00,
2013-09-28 07:55:00,57.2,56.6,30.13,WSW,243,0.0,1.0,98,0.00,,---,0.00,VWS V14.01,2013-09-28 11:55:00,
2013-09-28 07:59:00,55.9,55.3,30.16,WSW,254,0.0,0.0,98,0.00,,---,0.00,VWS V14.01,2013-09-28 11:59:00,
2013-09-28 08:00:00,57.6,57.0,30.14,WSW,240,0.0,1.0,98,0.00,,---,0.00,VWS V14.01,2013-09-28 12:00:00,
2013-09-28 08:04:00,56.1,55.5,30.16,WSW,254,0.0,0.0,98,0.00,,---,0.00,VWS V14.01,2013-09-28 12:04:00,
2013-09-28 08:05:00,57.8,57.2,30.14,WSW,240,0.0,1.0,98,0.00,,---,0.00,VWS V14.01,2013-09-28 12:05:00,
2013-09-28 08:09:00,56.5,56.2,30.16,WSW,254,0.0,0.0,99,0.00,,---,0.00,VWS V14.01,2013-09-28 12:09:00,
2013-09-28 08:10:00,57.7,56.9,30.14,SW,223,0.0,1.0,97,0.00,,---,0.00,VWS V14.01,2013-09-28 12:10:00,
2013-09-28 08:14:00,57.1,56.8,30.16,WSW,254,0.0,0.0,99,0.00,,---,0.00,VWS V14.01,2013-09-28 12:14:00,
2013-09-28 08:15:00,57.5,56.7,30.14,SW,223,0.0,0.0,97,0.00,,---,0.00,VWS V14.01,2013-09-28 12:15:00,
2013-09-28 08:19:00,57.7,57.4,30.16,WSW,254,0.0,0.0,99,0.00,,---,0.00,VWS V14.01,2013-09-28 12:19:00,
2013-09-28 08:20:00,57.6,56.8,30.14,SW,224,0.0,1.0,97,0.00,,---,0.00,VWS V14.01,2013-09-28 12:20:00,
2013-09-28 08:24:00,59.0,58.4,30.17,WSW,254,0.0,0.0,98,0.00,,---,0.00,VWS V14.01,2013-09-28 12:24:00,
2013-09-28 08:25:00,58.1,57.3,30.15,WSW,254,0.0,2.0,97,0.00,,---,0.00,VWS V14.01,2013-09-28 12:25:00,
2013-09-28 08:29:00,59.6,58.5,30.17,WSW,254,0.0,0.0,96,0.00,,---,0.00,VWS V14.01,2013-09-28 12:29:00,
2013-09-28 08:30:00,57.7,56.6,30.14,WSW,254,0.0,1.0,96,0.00,,---,0.00,VWS V14.01,2013-09-28 12:30:00,
2013-09-28 08:34:00,60.3,59.5,30.17,WSW,254,0.0,0.0,97,0.00,,---,0.00,VWS V14.01,2013-09-28 12:34:00,
2013-09-28 08:35:00,57.2,56.1,30.14,WSW,254,0.0,0.0,96,0.00,,---,0.00,VWS V14.01,2013-09-28 12:35:00,
2013-09-28 08:39:00,61.1,59.7,30.17,WSW,254,0.0,0.0,95,0.00,,---,0.00,VWS V14.01,2013-09-28 12:39:00,
2013-09-28 08:40:00,56.8,56.0,30.15,WSW,254,0.0,0.0,97,0.00,,---,0.00,VWS V14.01,2013-09-28 12:40:00,
2013-09-28 08:44:00,61.8,60.4,30.17,WSW,254,0.0,0.0,95,0.00,,---,0.00,VWS V14.01,2013-09-28 12:44:00,
2013-09-28 08:45:00,56.5,55.7,30.15,WSW,254,0.0,0.0,97,0.00,,---,0.00,VWS V14.01,2013-09-28 12:45:00,
2013-09-28 08:49:00,63.3,61.8,30.17,WSW,254,0.0,1.0,95,0.00,,---,0.00,VWS V14.01,2013-09-28 12:49:00,
2013-09-28 08:50:00,56.1,55.3,30.15,WSW,254,0.0,0.0,97,0.00,,---,0.00,VWS V14.01,2013-09-28 12:50:00,
2013-09-28 08:54:00,64.3,61.9,30.17,WSW,254,0.0,0.0,92,0.00,,---,0.00,VWS V14.01,2013-09-28 12:54:00,
2013-09-28 08:55:00,56.0,55.5,30.15,WSW,254,0.0,0.0,98,0.00,,---,0.00,VWS V14.01,2013-09-28 12:55:00,
2013-09-28 08:59:00,65.2,61.6,30.17,WSW,254,0.0,1.0,88,0.00,,---,0.00,VWS V14.01,2013-09-28 12:59:00,
2013-09-28 09:00:00,55.9,55.3,30.16,WSW,254,0.0,0.0,98,0.00,,---,0.00,VWS V14.01,2013-09-28 13:00:00,
2013-09-28 09:04:00,65.8,61.2,30.17,WSW,245,0.0,1.0,85,0.00,,---,0.00,VWS V14.01,2013-09-28 13:04:00,
2013-09-28 09:05:00,56.1,55.5,30.16,WSW,254,0.0,0.0,98,0.00,,---,0.00,VWS V14.01,2013-09-28 13:05:00,
2013-09-28 09:09:00,66.0,60.3,30.17,WSW,253,0.0,2.0,82,0.00,,---,0.00,VWS V14.01,2013-09-28 13:09:00,
2013-09-28 09:10:00,56.6,56.3,30.16,WSW,254,0.0,0.0,99,0.00,,---,0.00,VWS V14.01,2013-09-28 13:10:00,
2013-09-28 09:14:00,66.1,60.8,30.17,WSW,242,0.0,1.0,83,0.00,,---,0.00,VWS V14.01,2013-09-28 13:14:00,
2013-09-28 09:15:00,57.2,56.9,30.16,WSW,254,0.0,0.0,99,0.00,,---,0.00,VWS V14.01,2013-09-28 13:15:00,
2013-09-28 09:19:00,66.8,60.8,30.17,SSW,212,1.0,3.0,81,0.00,,---,0.00,VWS V14.01,2013-09-28 13:19:00,
2013-09-28 09:20:00,57.9,57.6,30.16,WSW,254,0.0,0.0,99,0.00,,---,0.00,VWS V14.01,2013-09-28 13:20:00,
2013-09-28 09:24:00,66.7,60.3,30.18,North,349,0.0,3.0,80,0.00,,---,0.00,VWS V14.01,2013-09-28 13:24:00,
2013-09-28 09:25:00,59.1,58.5,30.17,WSW,254,0.0,0.0,98,0.00,,---,0.00,VWS V14.01,2013-09-28 13:25:00,
2013-09-28 09:29:00,66.9,59.8,30.18,SSE,152,1.0,4.0,78,0.00,,---,0.00,VWS V14.01,2013-09-28 13:29:00,
2013-09-28 09:30:00,59.6,58.5,30.17,WSW,254,0.0,0.0,96,0.00,,---,0.00,VWS V14.01,2013-09-28 13:30:00,
2013-09-28 09:34:00,67.1,60.0,30.18,WSW,250,1.0,2.0,78,0.00,,---,0.00,VWS V14.01,2013-09-28 13:34:00,
2013-09-28 09:35:00,60.3,59.5,30.17,WSW,254,0.0,0.0,97,0.00,,---,0.00,VWS V14.01,2013-09-28 13:35:00,
2013-09-28 09:39:00,67.4,59.6,30.18,WSW,237,0.0,3.0,76,0.00,,---,0.00,VWS V14.01,2013-09-28 13:39:00,
2013-09-28 09:40:00,61.2,60.0,30.17,WSW,254,0.0,0.0,96,0.00,,---,0.00,VWS V14.01,2013-09-28 13:40:00,
2013-09-28 09:44:00,67.4,59.6,30.18,SSW,205,3.0,5.0,76,0.00,,---,0.00,VWS V14.01,2013-09-28 13:44:00,
2013-09-28 09:45:00,61.9,60.8,30.17,WSW,254,0.0,0.0,96,0.00,,---,0.00,VWS V14.01,2013-09-28 13:45:00,
2013-09-28 09:49:00,67.5,59.3,30.18,South,181,1.0,6.0,75,0.00,,---,0.00,VWS V14.01,2013-09-28 13:49:00,
2013-09-28 09:50:00,63.3,61.8,30.17,WSW,254,0.0,1.0,95,0.00,,---,0.00,VWS V14.01,2013-09-28 13:50:00,
2013-09-28 09:54:00,67.5,59.3,30.18,SSE,164,5.0,9.0,75,0.00,,---,0.00,VWS V14.01,2013-09-28 13:54:00,
2013-09-28 09:55:00,64.4,62.0,30.17,WSW,254,0.0,0.0,92,0.00,,---,0.00,VWS V14.01,2013-09-28 13:55:00,
2013-09-28 09:59:00,67.4,58.8,30.18,WSW,254,4.0,5.0,74,0.00,,---,0.00,VWS V14.01,2013-09-28 13:59:00,
2013-09-28 10:00:00,65.2,61.6,30.17,WSW,254,0.0,1.0,88,0.00,,---,0.00,VWS V14.01,2013-09-28 14:00:00,
2013-09-28 10:04:00,67.4,58.8,30.18,SW,219,2.0,5.0,74,0.00,,---,0.00,VWS V14.01,2013-09-28 14:04:00,
2013-09-28 10:05:00,65.8,61.2,30.17,WSW,245,0.0,1.0,85,0.00,,---,0.00,VWS V14.01,2013-09-28 14:05:00,
2013-09-28 10:09:00,67.8,58.8,30.18,SSW,207,2.0,5.0,73,0.00,,---,0.00,VWS V14.01,2013-09-28 14:09:00,
2013-09-28 10:10:00,66.0,60.7,30.17,WSW,253,0.0,2.0,83,0.00,,---,0.00,VWS V14.01,2013-09-28 14:10:00,
2013-09-28 10:14:00,68.2,58.5,30.18,SSW,198,3.0,6.0,71,0.00,,---,0.00,VWS V14.01,2013-09-28 14:14:00,
2013-09-28 10:15:00,66.1,60.8,30.17,SSE,161,1.0,1.0,83,0.00,,---,0.00,VWS V14.01,2013-09-28 14:15:00,
2013-09-28 10:19:00,68.2,58.5,30.18,SSW,198,4.0,8.0,71,0.00,,---,0.00,VWS V14.01,2013-09-28 14:19:00,
2013-09-28 10:20:00,66.9,60.2,30.17,SW,223,1.0,3.0,79,0.00,,---,0.00,VWS V14.01,2013-09-28 14:20:00,
2013-09-28 10:24:00,68.0,58.7,30.18,SE,134,2.0,8.0,72,0.00,,---,0.00,VWS V14.01,2013-09-28 14:24:00,
2013-09-28 10:25:00,66.7,60.3,30.18,North,349,0.0,3.0,80,0.00,,---,0.00,VWS V14.01,2013-09-28 14:25:00,
2013-09-28 10:29:00,68.6,59.2,30.19,South,172,4.0,8.0,72,0.00,,---,0.00,VWS V14.01,2013-09-28 14:29:00,
2013-09-28 10:30:00,66.9,59.8,30.18,SSE,151,2.0,4.0,78,0.00,,---,0.00,VWS V14.01,2013-09-28 14:30:00,
2013-09-28 10:34:00,68.9,59.1,30.19,SSE,153,4.0,7.0,71,0.00,,---,0.00,VWS V14.01,2013-09-28 14:34:00,
2013-09-28 10:35:00,67.2,60.1,30.18,SE,127,0.0,2.0,78,0.00,,---,0.00,VWS V14.01,2013-09-28 14:35:00,
2013-09-28 10:39:00,68.6,58.4,30.19,SW,214,3.0,7.0,70,0.00,,---,0.00,VWS V14.01,2013-09-28 14:39:00,
2013-09-28 10:40:00,67.5,59.7,30.18,WSW,250,0.0,3.0,76,0.00,,---,0.00,VWS V14.01,2013-09-28 14:40:00,
2013-09-28 10:44:00,68.5,58.7,30.19,SSE,152,4.0,8.0,71,0.00,,---,0.00,VWS V14.01,2013-09-28 14:44:00,
2013-09-28 10:45:00,67.4,59.6,30.18,SSE,153,5.0,5.0,76,0.00,,---,0.00,VWS V14.01,2013-09-28 14:45:00,
2013-09-28 10:49:00,69.0,60.0,30.18,SW,230,3.0,3.0,73,0.00,,---,0.00,VWS V14.01,2013-09-28 14:49:00,
2013-09-28 10:50:00,67.6,59.8,30.18,SSE,158,1.0,9.0,76,0.00,,---,0.00,VWS V14.01,2013-09-28 14:50:00,
2013-09-28 10:54:00,69.2,59.0,30.18,SSW,203,6.0,6.0,70,0.00,,---,0.00,VWS V14.01,2013-09-28 14:54:00,
2013-09-28 10:55:00,67.5,58.9,30.18,SSE,160,3.0,9.0,74,0.00,,---,0.00,VWS V14.01,2013-09-28 14:55:00,
2013-09-28 10:59:00,69.4,59.2,30.18,South,174,3.0,3.0,70,0.00,,---,0.00,VWS V14.01,2013-09-28 14:59:00,
2013-09-28 11:00:00,67.4,58.8,30.18,WSW,240,3.0,5.0,74,0.00,,---,0.00,VWS V14.01,2013-09-28 15:00:00,
2013-09-28 11:04:00,70.0,59.4,30.18,SSE,148,3.0,3.0,69,0.00,,---,0.00,VWS V14.01,2013-09-28 15:04:00,
2013-09-28 11:05:00,67.4,58.8,30.18,SW,218,1.0,5.0,74,0.00,,---,0.00,VWS V14.01,2013-09-28 15:05:00,
2013-09-28 11:09:00,70.6,60.0,30.18,WSW,250,1.0,2.0,69,0.00,,---,0.00,VWS V14.01,2013-09-28 15:09:00,
2013-09-28 11:10:00,67.8,58.8,30.18,SSW,207,1.0,5.0,73,0.00,,---,0.00,VWS V14.01,2013-09-28 15:10:00,
2013-09-28 11:14:00,70.5,59.0,30.18,WSW,251,1.0,2.0,67,0.00,,---,0.00,VWS V14.01,2013-09-28 15:14:00,
2013-09-28 11:15:00,68.2,58.5,30.18,SW,217,3.0,6.0,71,0.00,,---,0.00,VWS V14.01,2013-09-28 15:15:00,
2013-09-28 11:19:00,70.6,57.4,30.18,South,179,2.0,4.0,63,0.00,,---,0.00,VWS V14.01,2013-09-28 15:19:00,
2013-09-28 11:20:00,68.2,58.5,30.18,South,186,4.0,8.0,71,0.00,,---,0.00,VWS V14.01,2013-09-28 15:20:00,
2013-09-28 11:24:00,70.7,58.4,30.18,SW,233,4.0,4.0,65,0.00,,---,0.00,VWS V14.01,2013-09-28 15:24:00,
2013-09-28 11:25:00,68.0,58.7,30.18,SSE,158,2.0,8.0,72,0.00,,---,0.00,VWS V14.01,2013-09-28 15:25:00,
2013-09-28 11:29:00,70.9,58.6,30.18,SW,231,2.0,3.0,65,0.00,,---,0.00,VWS V14.01,2013-09-28 15:29:00,
2013-09-28 11:30:00,68.6,59.2,30.19,South,172,4.0,8.0,72,0.00,,---,0.00,VWS V14.01,2013-09-28 15:30:00,
2013-09-28 11:35:00,71.3,59.8,30.18,SSE,154,1.0,3.0,67,0.00,,---,0.00,VWS V14.01,2013-09-28 15:35:00,
2013-09-28 11:40:00,71.3,58.9,30.18,WSW,254,3.0,3.0,65,0.00,,---,0.00,VWS V14.01,2013-09-28 15:40:00,
2013-09-28 11:45:00,71.4,58.6,30.18,South,182,1.0,4.0,64,0.00,,---,0.00,VWS V14.01,2013-09-28 15:45:00,
2013-09-28 11:50:00,71.9,59.9,30.18,WNW,283,1.0,3.0,66,0.00,,---,0.00,VWS V14.01,2013-09-28 15:50:00,
2013-09-28 11:55:00,72.5,59.6,30.18,SW,232,0.0,0.0,64,0.00,,---,0.00,VWS V14.01,2013-09-28 15:55:00,
2013-09-28 12:00:00,73.1,59.8,30.18,WSW,240,4.0,4.0,63,0.00,,---,0.00,VWS V14.01,2013-09-28 16:00:00,
2013-09-28 12:05:00,72.5,58.8,30.18,NW,305,0.0,1.0,62,0.00,,---,0.00,VWS V14.01,2013-09-28 16:05:00,
2013-09-28 12:10:00,72.5,58.8,30.18,ENE,58,5.0,6.0,62,0.00,,---,0.00,VWS V14.01,2013-09-28 16:10:00,
2013-09-28 12:15:00,72.6,58.4,30.18,SSE,162,1.0,3.0,61,0.00,,---,0.00,VWS V14.01,2013-09-28 16:15:00,
2013-09-28 12:20:00,73.2,58.0,30.18,East,91,4.0,5.0,59,0.00,,---,0.00,VWS V14.01,2013-09-28 16:20:00,
2013-09-28 12:25:00,73.9,59.2,30.18,SSW,212,0.0,1.0,60,0.00,,---,0.00,VWS V14.01,2013-09-28 16:25:00,
2013-09-28 12:30:00,74.3,60.0,30.17,ENE,70,3.0,3.0,61,0.00,,---,0.00,VWS V14.01,2013-09-28 16:30:00,
2013-09-28 12:35:00,74.1,59.3,30.17,SE,125,2.0,3.0,60,0.00,,---,0.00,VWS V14.01,2013-09-28 16:35:00,
2013-09-28 12:40:00,74.5,59.7,30.17,West,270,1.0,3.0,60,0.00,,---,0.00,VWS V14.01,2013-09-28 16:40:00,
2013-09-28 12:45:00,74.5,59.2,30.17,SW,217,3.0,4.0,59,0.00,,---,0.00,VWS V14.01,2013-09-28 16:45:00,
2013-09-28 12:50:00,74.5,59.7,30.17,West,269,2.0,3.0,60,0.00,,---,0.00,VWS V14.01,2013-09-28 16:50:00,
2013-09-28 12:55:00,74.6,59.8,30.17,ENE,75,0.0,1.0,60,0.00,,---,0.00,VWS V14.01,2013-09-28 16:55:00,
2013-09-28 13:00:00,74.7,61.3,30.16,ENE,70,1.0,1.0,63,0.00,,---,0.00,VWS V14.01,2013-09-28 17:00:00,
2013-09-28 13:05:00,76.1,60.8,30.16,East,83,2.0,3.0,59,0.00,,---,0.00,VWS V14.01,2013-09-28 17:05:00,
2013-09-28 13:10:00,75.5,60.2,30.16,South,179,4.0,6.0,59,0.00,,---,0.00,VWS V14.01,2013-09-28 17:10:00,
2013-09-28 13:15:00,75.6,59.3,30.16,SW,224,0.0,1.0,57,0.00,,---,0.00,VWS V14.01,2013-09-28 17:15:00,
2013-09-28 13:20:00,75.7,59.9,30.16,West,271,1.0,3.0,58,0.00,,---,0.00,VWS V14.01,2013-09-28 17:20:00,
2013-09-28 13:25:00,75.6,58.8,30.16,SE,125,3.0,3.0,56,0.00,,---,0.00,VWS V14.01,2013-09-28 17:25:00,
2013-09-28 13:30:00,75.8,60.5,30.16,SSW,204,3.0,3.0,59,0.00,,---,0.00,VWS V14.01,2013-09-28 17:30:00,
2013-09-28 13:35:00,75.2,59.4,30.15,WNW,298,0.0,4.0,58,0.00,,---,0.00,VWS V14.01,2013-09-28 17:35:00,
2013-09-28 13:40:00,75.5,60.2,30.15,ENE,58,0.0,2.0,59,0.00,,---,0.00,VWS V14.01,2013-09-28 17:40:00,
2013-09-28 13:45:00,76.2,60.4,30.15,West,259,3.0,5.0,58,0.00,,---,0.00,VWS V14.01,2013-09-28 17:45:00,
2013-09-28 13:50:00,75.8,59.5,30.14,ESE,120,3.0,6.0,57,0.00,,---,0.00,VWS V14.01,2013-09-28 17:50:00,
2013-09-28 13:55:00,76.2,59.4,30.15,West,271,1.0,2.0,56,0.00,,---,0.00,VWS V14.01,2013-09-28 17:55:00,
2013-09-28 14:00:00,76.8,58.9,30.14,WSW,243,2.0,3.0,54,0.00,,---,0.00,VWS V14.01,2013-09-28 18:00:00,
2013-09-28 14:05:00,76.8,59.9,30.14,North,1,0.0,2.0,56,0.00,,---,0.00,VWS V14.01,2013-09-28 18:05:00,
2013-09-28 14:10:00,76.4,59.6,30.13,East,96,1.0,3.0,56,0.00,,---,0.00,VWS V14.01,2013-09-28 18:10:00,
2013-09-28 14:15:00,76.3,59.0,30.13,WNW,293,1.0,6.0,55,0.00,,---,0.00,VWS V14.01,2013-09-28 18:15:00,
2013-09-28 14:20:00,76.6,58.7,30.13,SE,139,1.0,3.0,54,0.00,,---,0.00,VWS V14.01,2013-09-28 18:20:00,
2013-09-28 14:25:00,76.1,59.3,30.13,WNW,291,1.0,2.0,56,0.00,,---,0.00,VWS V14.01,2013-09-28 18:25:00,
2013-09-28 14:30:00,76.6,60.2,30.13,SE,126,3.0,4.0,57,0.00,,---,0.00,VWS V14.01,2013-09-28 18:30:00,
2013-09-28 14:35:00,76.6,58.7,30.12,WSW,252,1.0,2.0,54,0.00,,---,0.00,VWS V14.01,2013-09-28 18:35:00,
2013-09-28 14:40:00,76.6,58.7,30.12,West,261,0.0,1.0,54,0.00,,---,0.00,VWS V14.01,2013-09-28 18:40:00,
2013-09-28 14:45:00,76.8,58.9,30.12,SSE,147,1.0,4.0,54,0.00,,---,0.00,VWS V14.01,2013-09-28 18:45:00,
2013-09-28 14:50:00,76.6,59.8,30.12,South,184,3.0,6.0,56,0.00,,---,0.00,VWS V14.01,2013-09-28 18:50:00,
2013-09-28 14:55:00,76.7,58.8,30.12,West,274,0.0,3.0,54,0.00,,---,0.00,VWS V14.01,2013-09-28 18:55:00,
2013-09-28 15:00:00,77.3,59.9,30.11,NW,321,4.0,5.0,55,0.00,,---,0.00,VWS V14.01,2013-09-28 19:00:00,
2013-09-28 15:05:00,77.5,58.5,30.11,SW,233,2.0,4.0,52,0.00,,---,0.00,VWS V14.01,2013-09-28 19:05:00,
2013-09-28 15:10:00,76.7,57.8,30.11,West,271,0.0,3.0,52,0.00,,---,0.00,VWS V14.01,2013-09-28 19:10:00,
2013-09-28 15:15:00,77.3,58.8,30.11,SSE,162,0.0,3.0,53,0.00,,---,0.00,VWS V14.01,2013-09-28 19:15:00,
2013-09-28 15:20:00,76.4,59.6,30.13,SE,125,1.0,6.0,56,0.00,,---,0.00,VWS V14.01,2013-09-28 19:20:00,
2013-09-28 15:21:00,78.9,59.8,30.11,SW,218,0.0,1.0,52,0.00,,---,0.00,VWS V14.01,2013-09-28 19:21:00,
2013-09-28 15:25:00,76.0,58.7,30.13,SE,127,0.0,7.0,55,0.00,,---,0.00,VWS V14.01,2013-09-28 19:25:00,
2013-09-28 15:26:00,79.1,58.9,30.11,SW,214,2.0,2.0,50,0.00,,---,0.00,VWS V14.01,2013-09-28 19:26:00,
2013-09-28 15:30:00,76.4,59.6,30.13,SE,124,1.0,11.0,56,0.00,,---,0.00,VWS V14.01,2013-09-28 19:30:00,
2013-09-28 15:31:00,78.7,59.6,30.10,NE,40,0.0,1.0,52,0.00,,---,0.00,VWS V14.01,2013-09-28 19:31:00,
2013-09-28 15:35:00,76.6,59.2,30.12,SSE,162,1.0,5.0,55,0.00,,---,0.00,VWS V14.01,2013-09-28 19:35:00,
2013-09-28 15:36:00,78.1,58.5,30.10,SE,130,1.0,2.0,51,0.00,,---,0.00,VWS V14.01,2013-09-28 19:36:00,
2013-09-28 15:40:00,76.7,58.8,30.12,WSW,252,1.0,2.0,54,0.00,,---,0.00,VWS V14.01,2013-09-28 19:40:00,
2013-09-28 15:41:00,77.1,58.7,30.10,East,80,1.0,3.0,53,0.00,,---,0.00,VWS V14.01,2013-09-28 19:41:00,
2013-09-28 15:45:00,76.8,59.9,30.12,SE,133,1.0,3.0,56,0.00,,---,0.00,VWS V14.01,2013-09-28 19:45:00,
2013-09-28 15:46:00,77.8,59.3,30.10,East,101,2.0,2.0,53,0.00,,---,0.00,VWS V14.01,2013-09-28 19:46:00,
2013-09-28 15:50:00,76.6,58.7,30.12,East,96,1.0,5.0,54,0.00,,---,0.00,VWS V14.01,2013-09-28 19:50:00,
2013-09-28 15:51:00,77.8,59.3,30.10,ENE,59,2.0,4.0,53,0.00,,---,0.00,VWS V14.01,2013-09-28 19:51:00,
2013-09-28 15:55:00,76.7,58.8,30.12,WSW,248,1.0,6.0,54,0.00,,---,0.00,VWS V14.01,2013-09-28 19:55:00,
2013-09-28 15:56:00,77.5,60.6,30.10,ESE,121,4.0,4.0,56,0.00,,---,0.00,VWS V14.01,2013-09-28 19:56:00,
2013-09-28 16:00:00,77.2,59.3,30.12,ESE,108,0.0,3.0,54,0.00,,---,0.00,VWS V14.01,2013-09-28 20:00:00,
2013-09-28 16:01:00,78.3,59.8,30.09,SSE,165,3.0,4.0,53,0.00,,---,0.00,VWS V14.01,2013-09-28 20:01:00,
2013-09-28 16:05:00,76.6,59.8,30.14,ENE,65,1.0,5.0,56,0.00,,---,0.00,VWS V14.01,2013-09-28 20:05:00,
2013-09-28 16:06:00,78.7,59.1,30.09,WSW,243,2.0,3.0,51,0.00,,---,0.00,VWS V14.01,2013-09-28 20:06:00,
2013-09-28 16:10:00,76.4,59.6,30.14,ESE,109,2.0,4.0,56,0.00,,---,0.00,VWS V14.01,2013-09-28 20:10:00,
2013-09-28 16:11:00,78.5,58.3,30.09,South,174,1.0,4.0,50,0.00,,---,0.00,VWS V14.01,2013-09-28 20:11:00,
2013-09-28 16:15:00,76.3,58.5,30.13,ESE,104,1.0,3.0,54,0.00,,---,0.00,VWS V14.01,2013-09-28 20:15:00,
2013-09-28 16:16:00,78.2,58.6,30.09,SSW,210,2.0,2.0,51,0.00,,---,0.00,VWS V14.01,2013-09-28 20:16:00,
2013-09-28 16:20:00,76.4,59.6,30.13,SE,125,1.0,6.0,56,0.00,,---,0.00,VWS V14.01,2013-09-28 20:20:00,
2013-09-28 16:21:00,78.9,59.2,30.09,South,182,1.0,3.0,51,0.00,,---,0.00,VWS V14.01,2013-09-28 20:21:00,
2013-09-28 16:25:00,76.0,58.7,30.13,SE,127,0.0,7.0,55,0.00,,---,0.00,VWS V14.01,2013-09-28 20:25:00,
2013-09-28 16:26:00,78.3,58.7,30.09,SE,130,0.0,2.0,51,0.00,,---,0.00,VWS V14.01,2013-09-28 20:26:00,
2013-09-28 16:30:00,78.8,58.6,30.10,SSW,192,0.0,3.0,50,0.00,,---,0.00,VWS V14.01,2013-09-28 20:30:00,
2013-09-28 16:31:00,78.8,58.6,30.09,East,89,1.0,3.0,50,0.00,,---,0.00,VWS V14.01,2013-09-28 20:31:00,
2013-09-28 16:35:00,76.6,59.2,30.12,SSE,162,1.0,5.0,55,0.00,,---,0.00,VWS V14.01,2013-09-28 20:35:00,
2013-09-28 16:36:00,78.6,58.4,30.09,East,94,2.0,2.0,50,0.00,,---,0.00,VWS V14.01,2013-09-28 20:36:00,
2013-09-28 16:40:00,77.3,57.8,30.10,East,84,3.0,5.0,51,0.00,,---,0.00,VWS V14.01,2013-09-28 20:40:00,
2013-09-28 16:41:00,77.8,59.3,30.09,East,81,2.0,2.0,53,0.00,,---,0.00,VWS V14.01,2013-09-28 20:41:00,
2013-09-28 16:45:00,77.5,59.6,30.10,ESE,117,0.0,3.0,54,0.00,,---,0.00,VWS V14.01,2013-09-28 20:45:00,
2013-09-28 16:46:00,77.0,60.1,30.08,ENE,63,1.0,2.0,56,0.00,,---,0.00,VWS V14.01,2013-09-28 20:46:00,
2013-09-28 16:50:00,77.8,59.3,30.10,ESE,110,0.0,4.0,53,0.00,,---,0.00,VWS V14.01,2013-09-28 20:50:00,
2013-09-28 16:51:00,76.6,60.7,30.08,SE,134,0.0,1.0,58,0.00,,---,0.00,VWS V14.01,2013-09-28 20:51:00,
2013-09-28 16:55:00,76.7,58.8,30.12,WSW,248,1.0,6.0,54,0.00,,---,0.00,VWS V14.01,2013-09-28 20:55:00,
2013-09-28 16:56:00,76.8,60.4,30.08,ENE,70,0.0,2.0,57,0.00,,---,0.00,VWS V14.01,2013-09-28 20:56:00,
2013-09-28 17:00:00,78.1,59.1,30.10,SSW,212,1.0,5.0,52,0.00,,---,0.00,VWS V14.01,2013-09-28 21:00:00,
2013-09-28 17:01:00,76.3,60.9,30.08,ESE,116,1.0,2.0,59,0.00,,---,0.00,VWS V14.01,2013-09-28 21:01:00,
2013-09-28 17:05:00,78.7,58.5,30.09,SSW,200,3.0,5.0,50,0.00,,---,0.00,VWS V14.01,2013-09-28 21:05:00,
2013-09-28 17:06:00,75.7,60.8,30.08,ESE,105,0.0,0.0,60,0.00,,---,0.00,VWS V14.01,2013-09-28 21:06:00,
2013-09-28 17:10:00,76.9,57.4,30.11,West,276,3.0,5.0,51,0.00,,---,0.00,VWS V14.01,2013-09-28 21:10:00,
2013-09-28 17:11:00,75.4,61.5,30.08,ESE,105,0.0,1.0,62,0.00,,---,0.00,VWS V14.01,2013-09-28 21:11:00,
2013-09-28 17:15:00,77.0,59.6,30.11,East,79,2.0,3.0,55,0.00,,---,0.00,VWS V14.01,2013-09-28 21:15:00,
2013-09-28 17:16:00,75.4,62.4,30.08,ESE,105,0.0,0.0,64,0.00,,---,0.00,VWS V14.01,2013-09-28 21:16:00,
2013-09-28 17:20:00,78.8,58.0,30.09,SSW,213,2.0,4.0,49,0.00,,---,0.00,VWS V14.01,2013-09-28 21:20:00,
2013-09-28 17:21:00,75.0,62.9,30.08,ESE,105,0.0,0.0,66,0.00,,---,0.00,VWS V14.01,2013-09-28 21:21:00,
2013-09-28 17:25:00,79.2,59.0,30.11,SE,145,2.0,6.0,50,0.00,,---,0.00,VWS V14.01,2013-09-28 21:25:00,
2013-09-28 17:26:00,75.5,63.4,30.07,ESE,105,0.0,0.0,66,0.00,,---,0.00,VWS V14.01,2013-09-28 21:26:00,
2013-09-28 17:30:00,78.5,59.4,30.09,ESE,118,1.0,3.0,52,0.00,,---,0.00,VWS V14.01,2013-09-28 21:30:00,
2013-09-28 17:31:00,75.4,62.4,30.07,ESE,105,0.0,1.0,64,0.00,,---,0.00,VWS V14.01,2013-09-28 21:31:00,
2013-09-28 17:35:00,78.6,59.0,30.09,SE,130,2.0,3.0,51,0.00,,---,0.00,VWS V14.01,2013-09-28 21:35:00,
2013-09-28 17:36:00,75.4,61.9,30.07,East,89,0.0,0.0,63,0.00,,---,0.00,VWS V14.01,2013-09-28 21:36:00,
2013-09-28 17:40:00,77.3,57.8,30.10,East,84,3.0,5.0,51,0.00,,---,0.00,VWS V14.01,2013-09-28 21:40:00,
2013-09-28 17:41:00,76.4,62.0,30.07,NNE,30,1.0,1.0,61,0.00,,---,0.00,VWS V14.01,2013-09-28 21:41:00,
2013-09-28 17:45:00,77.2,60.3,30.08,ENE,77,0.0,3.0,56,0.00,,---,0.00,VWS V14.01,2013-09-28 21:45:00,
2013-09-28 17:46:00,76.6,62.2,30.07,NNE,30,0.0,0.0,61,0.00,,---,0.00,VWS V14.01,2013-09-28 21:46:00,
2013-09-28 17:50:00,76.6,60.2,30.08,ESE,102,1.0,2.0,57,0.00,,---,0.00,VWS V14.01,2013-09-28 21:50:00,
2013-09-28 17:51:00,77.2,61.8,30.07,NNE,30,0.0,1.0,59,0.00,,---,0.00,VWS V14.01,2013-09-28 21:51:00,
2013-09-28 17:55:00,76.8,59.9,30.08,SE,125,0.0,3.0,56,0.00,,---,0.00,VWS V14.01,2013-09-28 21:55:00,
2013-09-28 17:56:00,77.2,62.2,30.07,NNE,30,0.0,0.0,60,0.00,,---,0.00,VWS V14.01,2013-09-28 21:56:00,
2013-09-28 18:00:00,76.5,60.6,30.08,East,96,1.0,2.0,58,0.00,,---,0.00,VWS V14.01,2013-09-28 22:00:00,
2013-09-28 18:02:00,77.4,61.5,30.07,NNE,30,0.0,1.0,58,0.00,,---,0.00,VWS V14.01,2013-09-28 22:02:00,
2013-09-28 18:05:00,75.9,60.6,30.08,ESE,105,0.0,3.0,59,0.00,,---,0.00,VWS V14.01,2013-09-28 22:05:00,
2013-09-28 18:07:00,77.5,61.6,30.07,NNE,30,0.0,0.0,58,0.00,,---,0.00,VWS V14.01,2013-09-28 22:07:00,
2013-09-28 18:10:00,75.4,61.9,30.08,ESE,105,0.0,0.0,63,0.00,,---,0.00,VWS V14.01,2013-09-28 22:10:00,
2013-09-28 18:12:00,77.3,61.9,30.06,NNE,30,0.0,0.0,59,0.00,,---,0.00,VWS V14.01,2013-09-28 22:12:00,
2013-09-28 18:15:00,75.5,62.9,30.08,ESE,105,0.0,1.0,65,0.00,,---,0.00,VWS V14.01,2013-09-28 22:15:00,
2013-09-28 18:17:00,77.6,62.2,30.06,NNE,30,1.0,1.0,59,0.00,,---,0.00,VWS V14.01,2013-09-28 22:17:00,
2013-09-28 18:20:00,75.1,63.4,30.08,ESE,105,0.0,0.0,67,0.00,,---,0.00,VWS V14.01,2013-09-28 22:20:00,
2013-09-28 18:22:00,77.4,62.0,30.06,NNE,30,0.0,0.0,59,0.00,,---,0.00,VWS V14.01,2013-09-28 22:22:00,
2013-09-28 18:25:00,75.3,63.2,30.08,ESE,105,0.0,0.0,66,0.00,,---,0.00,VWS V14.01,2013-09-28 22:25:00,
2013-09-28 18:27:00,77.5,62.5,30.06,NNE,30,0.0,0.0,60,0.00,,---,0.00,VWS V14.01,2013-09-28 22:27:00,
2013-09-28 18:30:00,75.5,62.9,30.07,ESE,105,0.0,0.0,65,0.00,,---,0.00,VWS V14.01,2013-09-28 22:30:00,
2013-09-28 18:32:00,76.4,62.9,30.06,NNE,30,0.0,0.0,63,0.00,,---,0.00,VWS V14.01,2013-09-28 22:32:00,
2013-09-28 18:35:00,75.3,62.7,30.07,ESE,105,0.0,1.0,65,0.00,,---,0.00,VWS V14.01,2013-09-28 22:35:00,
2013-09-28 18:37:00,75.8,63.2,30.06,NNE,30,0.0,0.0,65,0.00,,---,0.00,VWS V14.01,2013-09-28 22:37:00,
2013-09-28 18:40:00,76.1,61.7,30.07,East,89,0.0,1.0,61,0.00,,---,0.00,VWS V14.01,2013-09-28 22:40:00,
2013-09-28 18:42:00,75.5,62.9,30.06,NNE,30,0.0,0.0,65,0.00,,---,0.00,VWS V14.01,2013-09-28 22:42:00,
2013-09-28 18:45:00,76.6,61.7,30.07,NNE,30,0.0,1.0,60,0.00,,---,0.00,VWS V14.01,2013-09-28 22:45:00,
2013-09-28 18:47:00,74.4,63.2,30.06,NNE,30,0.0,0.0,68,0.00,,---,0.00,VWS V14.01,2013-09-28 22:47:00,
2013-09-28 18:50:00,77.0,62.1,30.07,NNE,30,0.0,0.0,60,0.00,,---,0.00,VWS V14.01,2013-09-28 22:50:00,
2013-09-28 18:52:00,74.4,63.6,30.06,NNE,30,0.0,0.0,69,0.00,,---,0.00,VWS V14.01,2013-09-28 22:52:00,
2013-09-28 18:55:00,77.0,62.1,30.07,NNE,30,0.0,1.0,60,0.00,,---,0.00,VWS V14.01,2013-09-28 22:55:00,
2013-09-28 18:57:00,74.5,63.3,30.06,NNE,30,0.0,0.0,68,0.00,,---,0.00,VWS V14.01,2013-09-28 22:57:00,
2013-09-28 19:00:00,77.2,60.8,30.07,NNE,30,0.0,0.0,57,0.00,,---,0.00,VWS V14.01,2013-09-28 23:00:00,
2013-09-28 19:02:00,73.7,63.7,30.06,NNE,30,0.0,0.0,71,0.00,,---,0.00,VWS V14.01,2013-09-28 23:02:00,
2013-09-28 19:05:00,77.4,61.0,30.07,NNE,30,0.0,1.0,57,0.00,,---,0.00,VWS V14.01,2013-09-28 23:05:00,
2013-09-28 19:07:00,72.8,63.7,30.06,NNE,30,0.0,0.0,73,0.00,,---,0.00,VWS V14.01,2013-09-28 23:07:00,
2013-09-28 19:10:00,77.6,62.2,30.06,NNE,30,0.0,0.0,59,0.00,,---,0.00,VWS V14.01,2013-09-28 23:10:00,
2013-09-28 19:12:00,71.8,63.1,30.06,NNE,30,0.0,0.0,74,0.00,,---,0.00,VWS V14.01,2013-09-28 23:12:00,
2013-09-28 19:15:00,77.5,62.5,30.06,NNE,30,0.0,0.0,60,0.00,,---,0.00,VWS V14.01,2013-09-28 23:15:00,
2013-09-28 19:17:00,71.2,63.3,30.06,NNE,30,0.0,0.0,76,0.00,,---,0.00,VWS V14.01,2013-09-28 23:17:00,
2013-09-28 19:20:00,77.4,62.9,30.06,NNE,30,0.0,1.0,61,0.00,,---,0.00,VWS V14.01,2013-09-28 23:20:00,
2013-09-28 19:22:00,70.7,63.5,30.06,NNE,30,0.0,0.0,78,0.00,,---,0.00,VWS V14.01,2013-09-28 23:22:00,
2013-09-28 19:25:00,77.5,62.5,30.06,NNE,30,0.0,0.0,60,0.00,,---,0.00,VWS V14.01,2013-09-28 23:25:00,
2013-09-28 19:27:00,69.9,63.1,30.06,NNE,30,0.0,0.0,79,0.00,,---,0.00,VWS V14.01,2013-09-28 23:27:00,
2013-09-28 19:30:00,77.2,62.7,30.06,NNE,30,0.0,1.0,61,0.00,,---,0.00,VWS V14.01,2013-09-28 23:30:00,
2013-09-28 19:32:00,68.9,62.8,30.06,NNE,30,0.0,0.0,81,0.00,,---,0.00,VWS V14.01,2013-09-28 23:32:00,
2013-09-28 19:35:00,75.8,62.8,30.06,NNE,30,0.0,0.0,64,0.00,,---,0.00,VWS V14.01,2013-09-28 23:35:00,
2013-09-28 19:37:00,67.9,62.5,30.06,NNE,30,0.0,0.0,83,0.00,,---,0.00,VWS V14.01,2013-09-28 23:37:00,
2013-09-28 19:40:00,75.8,63.2,30.06,NNE,30,0.0,0.0,65,0.00,,---,0.00,VWS V14.01,2013-09-28 23:40:00,
2013-09-28 19:42:00,67.1,62.5,30.06,NNE,30,0.0,0.0,85,0.00,,---,0.00,VWS V14.01,2013-09-28 23:42:00,
2013-09-28 19:45:00,74.9,62.3,30.06,NNE,30,0.0,0.0,65,0.00,,---,0.00,VWS V14.01,2013-09-28 23:45:00,
2013-09-28 19:47:00,66.5,62.5,30.06,NNE,30,0.0,0.0,87,0.00,,---,0.00,VWS V14.01,2013-09-28 23:47:00,
2013-09-28 19:50:00,74.3,63.5,30.06,NNE,30,0.0,0.0,69,0.00,,---,0.00,VWS V14.01,2013-09-28 23:50:00,
2013-09-28 19:52:00,65.9,62.2,30.06,NNE,30,0.0,0.0,88,0.00,,---,0.00,VWS V14.01,2013-09-28 23:52:00,
2013-09-28 19:55:00,74.5,63.3,30.06,NNE,30,0.0,0.0,68,0.00,,---,0.00,VWS V14.01,2013-09-28 23:55:00,
2013-09-28 19:57:00,65.5,62.5,30.06,NNE,30,0.0,0.0,90,0.00,,---,0.00,VWS V14.01,2013-09-28 23:57:00,
2013-09-28 20:00:00,74.3,63.9,30.06,NNE,30,0.0,0.0,70,0.00,,---,0.00,VWS V14.01,2013-09-29 00:00:00,
2013-09-28 20:02:00,65.0,61.7,30.06,NNE,30,0.0,0.0,89,0.00,,---,0.00,VWS V14.01,2013-09-29 00:02:00,
2013-09-28 20:05:00,73.2,62.8,30.06,NNE,30,0.0,0.0,70,0.00,,---,0.00,VWS V14.01,2013-09-29 00:05:00,
2013-09-28 20:07:00,64.6,61.9,30.06,NNE,30,0.0,0.0,91,0.00,,---,0.00,VWS V14.01,2013-09-29 00:07:00,
2013-09-28 20:10:00,72.3,63.6,30.06,NNE,30,0.0,0.0,74,0.00,,---,0.00,VWS V14.01,2013-09-29 00:10:00,
2013-09-28 20:12:00,64.2,61.5,30.06,NNE,30,0.0,0.0,91,0.00,,---,0.00,VWS V14.01,2013-09-29 00:12:00,
2013-09-28 20:15:00,71.5,63.2,30.06,NNE,30,0.0,0.0,75,0.00,,---,0.00,VWS V14.01,2013-09-29 00:15:00,
2013-09-28 20:17:00,63.9,61.2,30.06,NNE,30,0.0,0.0,91,0.00,,---,0.00,VWS V14.01,2013-09-29 00:17:00,
2013-09-28 20:20:00,71.0,63.1,30.06,NNE,30,0.0,0.0,76,0.00,,---,0.00,VWS V14.01,2013-09-29 00:20:00,
2013-09-28 20:22:00,63.5,61.1,30.06,NNE,30,0.0,0.0,92,0.00,,---,0.00,VWS V14.01,2013-09-29 00:22:00,
2013-09-28 20:25:00,70.3,63.1,30.06,NNE,30,0.0,0.0,78,0.00,,---,0.00,VWS V14.01,2013-09-29 00:25:00,
2013-09-28 20:27:00,63.1,61.0,30.06,NNE,30,0.0,0.0,93,0.00,,---,0.00,VWS V14.01,2013-09-29 00:27:00,
2013-09-28 20:30:00,69.4,63.0,30.06,NNE,30,0.0,0.0,80,0.00,,---,0.00,VWS V14.01,2013-09-29 00:30:00,
2013-09-28 20:32:00,62.9,60.8,30.06,NNE,30,0.0,0.0,93,0.00,,---,0.00,VWS V14.01,2013-09-29 00:32:00,
2013-09-28 20:35:00,68.4,62.7,30.06,NNE,30,0.0,0.0,82,0.00,,---,0.00,VWS V14.01,2013-09-29 00:35:00,
2013-09-28 20:37:00,62.6,60.8,30.06,NNE,30,0.0,0.0,94,0.00,,---,0.00,VWS V14.01,2013-09-29 00:37:00,
2013-09-28 20:40:00,67.5,62.2,30.06,NNE,30,0.0,0.0,83,0.00,,---,0.00,VWS V14.01,2013-09-29 00:40:00,
2013-09-28 20:42:00,62.4,60.7,30.06,NNE,30,0.0,0.0,94,0.00,,---,0.00,VWS V14.01,2013-09-29 00:42:00,
2013-09-28 20:45:00,66.8,62.2,30.06,NNE,30,0.0,0.0,85,0.00,,---,0.00,VWS V14.01,2013-09-29 00:45:00,
2013-09-28 20:47:00,62.2,60.8,30.06,NNE,30,0.0,0.0,95,0.00,,---,0.00,VWS V14.01,2013-09-29 00:47:00,
2013-09-28 20:50:00,66.2,62.2,30.06,NNE,30,0.0,0.0,87,0.00,,---,0.00,VWS V14.01,2013-09-29 00:50:00,
2013-09-28 20:52:00,61.9,60.2,30.06,NNE,30,0.0,0.0,94,0.00,,---,0.00,VWS V14.01,2013-09-29 00:52:00,
2013-09-28 20:55:00,65.7,62.4,30.06,NNE,30,0.0,0.0,89,0.00,,---,0.00,VWS V14.01,2013-09-29 00:55:00,
2013-09-28 20:57:00,61.6,60.2,30.06,NNE,30,0.0,0.0,95,0.00,,---,0.00,VWS V14.01,2013-09-29 00:57:00,
2013-09-28 21:00:00,65.3,62.3,30.06,NNE,30,0.0,0.0,90,0.00,,---,0.00,VWS V14.01,2013-09-29 01:00:00,
2013-09-28 21:02:00,61.4,60.0,30.06,NNE,30,0.0,0.0,95,0.00,,---,0.00,VWS V14.01,2013-09-29 01:02:00,
2013-09-28 21:05:00,64.9,61.9,30.06,NNE,30,0.0,0.0,90,0.00,,---,0.00,VWS V14.01,2013-09-29 01:05:00,
2013-09-28 21:07:00,61.2,60.0,30.07,NNE,30,0.0,0.0,96,0.00,,---,0.00,VWS V14.01,2013-09-29 01:07:00,
2013-09-28 21:10:00,64.5,61.8,30.06,NNE,30,0.0,0.0,91,0.00,,---,0.00,VWS V14.01,2013-09-29 01:10:00,
2013-09-28 21:12:00,61.1,60.0,30.07,NNE,30,0.0,0.0,96,0.00,,---,0.00,VWS V14.01,2013-09-29 01:12:00,
2013-09-28 21:15:00,64.1,61.4,30.06,NNE,30,0.0,0.0,91,0.00,,---,0.00,VWS V14.01,2013-09-29 01:15:00,
2013-09-28 21:17:00,61.1,60.2,30.07,NNE,30,0.0,0.0,97,0.00,,---,0.00,VWS V14.01,2013-09-29 01:17:00,
2013-09-28 21:20:00,63.7,61.3,30.06,NNE,30,0.0,0.0,92,0.00,,---,0.00,VWS V14.01,2013-09-29 01:20:00,
2013-09-28 21:23:00,60.9,59.8,30.07,NNE,30,0.0,0.0,96,0.00,,---,0.00,VWS V14.01,2013-09-29 01:23:00,
2013-09-28 21:25:00,63.3,60.9,30.06,NNE,30,0.0,0.0,92,0.00,,---,0.00,VWS V14.01,2013-09-29 01:25:00,
2013-09-28 21:28:00,60.9,60.0,30.07,NNE,30,0.0,0.0,97,0.00,,---,0.00,VWS V14.01,2013-09-29 01:28:00,
2013-09-28 21:30:00,63.0,61.0,30.06,NNE,30,0.0,0.0,93,0.00,,---,0.00,VWS V14.01,2013-09-29 01:30:00,
2013-09-28 21:33:00,60.7,59.6,30.08,NNE,30,0.0,0.0,96,0.00,,---,0.00,VWS V14.01,2013-09-29 01:33:00,
2013-09-28 21:35:00,62.8,60.8,30.06,NNE,30,0.0,0.0,93,0.00,,---,0.00,VWS V14.01,2013-09-29 01:35:00,
2013-09-28 21:38:00,60.8,60.0,30.08,North,358,0.0,1.0,97,0.00,,---,0.00,VWS V14.01,2013-09-29 01:38:00,
2013-09-28 21:40:00,62.5,60.8,30.06,NNE,30,0.0,0.0,94,0.00,,---,0.00,VWS V14.01,2013-09-29 01:40:00,
2013-09-28 21:43:00,60.7,59.8,30.08,North,358,0.0,0.0,97,0.00,,---,0.00,VWS V14.01,2013-09-29 01:43:00,
2013-09-28 21:45:00,62.3,60.6,30.06,NNE,30,0.0,0.0,94,0.00,,---,0.00,VWS V14.01,2013-09-29 01:45:00,
2013-09-28 21:48:00,60.5,59.4,30.08,North,358,0.0,0.0,96,0.00,,---,0.00,VWS V14.01,2013-09-29 01:48:00,
2013-09-28 21:50:00,62.1,60.4,30.06,NNE,30,0.0,0.0,94,0.00,,---,0.00,VWS V14.01,2013-09-29 01:50:00,
2013-09-28 21:53:00,60.4,59.5,30.08,North,358,0.0,0.0,97,0.00,,---,0.00,VWS V14.01,2013-09-29 01:53:00,
2013-09-28 21:55:00,61.8,60.1,30.06,NNE,30,0.0,0.0,94,0.00,,---,0.00,VWS V14.01,2013-09-29 01:55:00,
2013-09-28 21:58:00,60.4,59.5,30.09,North,358,0.0,0.0,97,0.00,,---,0.00,VWS V14.01,2013-09-29 01:58:00,
2013-09-28 22:00:00,61.6,60.2,30.06,NNE,30,0.0,0.0,95,0.00,,---,0.00,VWS V14.01,2013-09-29 02:00:00,
2013-09-28 22:03:00,60.7,59.8,30.09,WNW,297,0.0,1.0,97,0.00,,---,0.00,VWS V14.01,2013-09-29 02:03:00,
2013-09-28 22:05:00,61.3,59.9,30.07,NNE,30,0.0,0.0,95,0.00,,---,0.00,VWS V14.01,2013-09-29 02:05:00,
2013-09-28 22:08:00,60.7,59.8,30.09,WNW,297,0.0,0.0,97,0.00,,---,0.00,VWS V14.01,2013-09-29 02:08:00,
2013-09-28 22:10:00,61.1,60.0,30.07,NNE,30,0.0,0.0,96,0.00,,---,0.00,VWS V14.01,2013-09-29 02:10:00,
2013-09-28 22:13:00,60.6,59.8,30.09,WNW,297,0.0,0.0,97,0.00,,---,0.00,VWS V14.01,2013-09-29 02:13:00,
2013-09-28 22:15:00,61.1,60.2,30.07,NNE,30,0.0,0.0,97,0.00,,---,0.00,VWS V14.01,2013-09-29 02:15:00,
2013-09-28 22:18:00,60.4,59.5,30.09,WNW,297,0.0,0.0,97,0.00,,---,0.00,VWS V14.01,2013-09-29 02:18:00,
2013-09-28 22:20:00,61.0,59.9,30.07,NNE,30,0.0,0.0,96,0.00,,---,0.00,VWS V14.01,2013-09-29 02:20:00,
2013-09-28 22:23:00,60.3,59.5,30.09,WNW,297,0.0,0.0,97,0.00,,---,0.00,VWS V14.01,2013-09-29 02:23:00,
2013-09-28 22:25:00,60.8,59.7,30.07,NNE,30,0.0,0.0,96,0.00,,---,0.00,VWS V14.01,2013-09-29 02:25:00,
2013-09-28 22:28:00,60.1,59.2,30.09,WNW,297,0.0,0.0,97,0.00,,---,0.00,VWS V14.01,2013-09-29 02:28:00,
2013-09-28 22:30:00,60.8,60.0,30.08,NNE,30,0.0,0.0,97,0.00,,---,0.00,VWS V14.01,2013-09-29 02:30:00,
2013-09-28 22:33:00,60.1,59.2,30.10,WNW,297,0.0,0.0,97,0.00,,---,0.00,VWS V14.01,2013-09-29 02:33:00,
2013-09-28 22:35:00,60.7,59.8,30.08,NNE,24,0.0,1.0,97,0.00,,---,0.00,VWS V14.01,2013-09-29 02:35:00,
2013-09-28 22:38:00,60.1,59.2,30.10,WNW,297,0.0,0.0,97,0.00,,---,0.00,VWS V14.01,2013-09-29 02:38:00,
2013-09-28 22:40:00,60.8,60.0,30.08,North,358,0.0,1.0,97,0.00,,---,0.00,VWS V14.01,2013-09-29 02:40:00,
2013-09-28 22:43:00,60.1,59.5,30.09,WNW,297,0.0,0.0,98,0.00,,---,0.00,VWS V14.01,2013-09-29 02:43:00,
2013-09-28 22:45:00,60.7,59.8,30.08,North,358,0.0,0.0,97,0.00,,---,0.00,VWS V14.01,2013-09-29 02:45:00,
2013-09-28 22:48:00,59.9,59.0,30.10,WNW,297,0.0,0.0,97,0.00,,---,0.00,VWS V14.01,2013-09-29 02:48:00,
2013-09-28 22:50:00,60.5,59.4,30.08,North,358,0.0,0.0,96,0.00,,---,0.00,VWS V14.01,2013-09-29 02:50:00,
2013-09-28 22:53:00,59.8,59.0,30.09,WNW,297,0.0,0.0,97,0.00,,---,0.00,VWS V14.01,2013-09-29 02:53:00,
2013-09-28 22:55:00,60.4,59.5,30.08,North,358,0.0,0.0,97,0.00,,---,0.00,VWS V14.01,2013-09-29 02:55:00,
2013-09-28 22:58:00,59.6,58.8,30.10,WNW,297,0.0,1.0,97,0.00,,---,0.00,VWS V14.01,2013-09-29 02:58:00,
2013-09-28 23:00:00,60.5,59.7,30.09,North,358,0.0,0.0,97,0.00,,---,0.00,VWS V14.01,2013-09-29 03:00:00,
2013-09-28 23:04:00,59.5,58.9,30.09,WNW,297,0.0,0.0,98,0.00,,---,0.00,VWS V14.01,2013-09-29 03:04:00,
2013-09-28 23:05:00,60.7,59.8,30.09,WNW,297,0.0,1.0,97,0.00,,---,0.00,VWS V14.01,2013-09-29 03:05:00,
2013-09-28 23:09:00,59.4,58.5,30.10,WNW,297,0.0,0.0,97,0.00,,---,0.00,VWS V14.01,2013-09-29 03:09:00,
2013-09-28 23:10:00,60.7,59.8,30.09,WNW,297,0.0,0.0,97,0.00,,---,0.00,VWS V14.01,2013-09-29 03:10:00,
2013-09-28 23:14:00,59.2,58.6,30.10,WNW,297,0.0,0.0,98,0.00,,---,0.00,VWS V14.01,2013-09-29 03:14:00,
2013-09-28 23:15:00,60.5,59.4,30.09,WNW,297,0.0,0.0,96,0.00,,---,0.00,VWS V14.01,2013-09-29 03:15:00,
2013-09-28 23:19:00,59.2,58.6,30.10,WNW,297,0.0,1.0,98,0.00,,---,0.00,VWS V14.01,2013-09-29 03:19:00,
2013-09-28 23:20:00,60.4,59.5,30.09,WNW,297,0.0,0.0,97,0.00,,---,0.00,VWS V14.01,2013-09-29 03:20:00,
2013-09-28 23:24:00,59.1,58.5,30.10,WNW,297,0.0,0.0,98,0.00,,---,0.00,VWS V14.01,2013-09-29 03:24:00,
2013-09-28 23:25:00,60.3,59.5,30.09,WNW,297,0.0,0.0,97,0.00,,---,0.00,VWS V14.01,2013-09-29 03:25:00,
2013-09-28 23:29:00,59.1,58.5,30.10,WNW,297,0.0,0.0,98,0.00,,---,0.00,VWS V14.01,2013-09-29 03:29:00,
2013-09-28 23:30:00,60.1,59.2,30.09,WNW,297,0.0,0.0,97,0.00,,---,0.00,VWS V14.01,2013-09-29 03:30:00,
2013-09-28 23:34:00,59.1,58.5,30.10,WNW,297,0.0,1.0,98,0.00,,---,0.00,VWS V14.01,2013-09-29 03:34:00,
2013-09-28 23:35:00,60.1,59.2,30.10,WNW,297,0.0,0.0,97,0.00,,---,0.00,VWS V14.01,2013-09-29 03:35:00,
2013-09-28 23:39:00,59.1,58.5,30.10,WNW,297,0.0,0.0,98,0.00,,---,0.00,VWS V14.01,2013-09-29 03:39:00,
2013-09-28 23:40:00,60.1,59.2,30.10,WNW,297,0.0,0.0,97,0.00,,---,0.00,VWS V14.01,2013-09-29 03:40:00,
2013-09-28 23:44:00,59.1,58.5,30.10,WNW,297,0.0,0.0,98,0.00,,---,0.00,VWS V14.01,2013-09-29 03:44:00,
2013-09-28 23:45:00,60.1,59.2,30.09,WNW,297,0.0,0.0,97,0.00,,---,0.00,VWS V14.01,2013-09-29 03:45:00,
2013-09-28 23:49:00,59.2,58.6,30.10,WNW,297,0.0,0.0,98,0.00,,---,0.00,VWS V14.01,2013-09-29 03:49:00,
2013-09-28 23:50:00,59.9,59.0,30.10,WNW,297,0.0,0.0,97,0.00,,---,0.00,VWS V14.01,2013-09-29 03:50:00,
2013-09-28 23:54:00,59.2,58.6,30.10,WNW,297,0.0,0.0,98,0.00,,---,0.00,VWS V14.01,2013-09-29 03:54:00,
2013-09-28 23:55:00,59.8,59.0,30.09,WNW,297,0.0,0.0,97,0.00,,---,0.00,VWS V14.01,2013-09-29 03:55:00,
2013-09-28 23:59:00,59.3,58.7,30.10,WSW,246,0.0,1.0,98,0.00,,---,0.00,VWS V14.01,2013-09-29 03:59:00,